createdAt,value
2022-08-28T00:00:28.466Z,20.21
2022-08-28T00:02:55.593Z,20.23
2022-08-28T00:05:27.223Z,20.26
2022-08-28T00:07:53.984Z,20.25
2022-08-28T00:10:22.345Z,20.22
2022-08-28T00:12:50.271Z,20.19
2022-08-28T00:15:20.659Z,20.15
2022-08-28T00:17:47.792Z,20.11
2022-08-28T00:20:15.387Z,20.09
2022-08-28T00:22:42.213Z,20.06
2022-08-28T00:25:10.316Z,20.05
2022-08-28T00:27:55.869Z,20.07
2022-08-28T00:30:29.505Z,20.12
2022-08-28T00:32:59.682Z,20.16
2022-08-28T00:35:27.093Z,20.17
2022-08-28T00:37:55.302Z,20.13
2022-08-28T00:40:28.609Z,20.07
2022-08-28T00:42:56.219Z,20.01
2022-08-28T00:45:24.232Z,19.97
2022-08-28T00:47:52.321Z,19.93
2022-08-28T00:50:21.163Z,19.88
2022-08-28T00:52:49.174Z,19.84
2022-08-28T00:55:17.829Z,19.81
2022-08-28T00:57:49.276Z,19.81
2022-08-28T01:00:29.373Z,19.82
2022-08-28T01:02:56.572Z,19.85
2022-08-28T01:05:26.597Z,19.90
2022-08-28T01:07:53.338Z,19.96
2022-08-28T01:10:22.758Z,20.00
2022-08-28T01:12:50.112Z,20.03
2022-08-28T01:15:19.178Z,20.04
2022-08-28T01:17:51.435Z,20.02
2022-08-28T01:20:21.103Z,20.01
2022-08-28T01:23:09.248Z,19.98
2022-08-28T01:25:37.140Z,19.96
2022-08-28T01:28:06.946Z,19.94
2022-08-28T01:30:33.985Z,19.94
2022-08-28T01:33:00.789Z,19.94
2022-08-28T01:35:30.200Z,19.95
2022-08-28T01:37:57.133Z,19.96
2022-08-28T01:40:26.905Z,19.98
2022-08-28T01:42:54.658Z,20.00
2022-08-28T01:45:22.736Z,20.01
2022-08-28T01:47:51.399Z,20.00
2022-08-28T01:50:20.005Z,19.99
2022-08-28T01:52:46.737Z,19.99
2022-08-28T01:55:14.106Z,19.98
2022-08-28T01:57:49.615Z,19.98
2022-08-28T02:00:17.157Z,19.98
2022-08-28T02:02:44.032Z,19.98
2022-08-28T02:05:11.144Z,19.97
2022-08-28T02:07:38.096Z,19.96
2022-08-28T02:10:06.776Z,19.97
2022-08-28T02:12:33.647Z,19.98
2022-08-28T02:15:00.393Z,19.99
2022-08-28T02:17:27.200Z,20.00
2022-08-28T02:19:53.989Z,20.01
2022-08-28T02:22:20.716Z,20.01
2022-08-28T02:24:47.502Z,20.01
2022-08-28T02:27:14.276Z,20.01
2022-08-28T02:29:41.077Z,20.00
2022-08-28T02:32:08.091Z,19.99
2022-08-28T02:34:34.886Z,20.01
2022-08-28T02:37:01.688Z,20.02
2022-08-28T02:39:28.571Z,20.04
2022-08-28T02:41:55.314Z,20.05
2022-08-28T02:44:22.086Z,20.08
2022-08-28T02:46:49.163Z,20.08
2022-08-28T02:49:15.953Z,20.09
2022-08-28T02:51:42.645Z,20.10
2022-08-28T02:54:09.396Z,20.10
2022-08-28T02:56:36.179Z,20.10
2022-08-28T02:59:02.899Z,20.09
2022-08-28T03:01:29.755Z,20.08
2022-08-28T03:03:56.492Z,20.08
2022-08-28T03:06:23.269Z,20.08
2022-08-28T03:08:50.019Z,20.09
2022-08-28T03:11:16.793Z,20.09
2022-08-28T03:13:43.517Z,20.08
2022-08-28T03:16:10.277Z,20.05
2022-08-28T03:18:37.065Z,20.01
2022-08-28T03:21:03.909Z,19.97
2022-08-28T03:23:31.855Z,19.95
2022-08-28T03:26:02.382Z,19.95
2022-08-28T03:28:32.262Z,19.94
2022-08-28T03:30:59.202Z,19.92
2022-08-28T03:33:26.813Z,19.89
2022-08-28T03:35:53.877Z,19.87
2022-08-28T03:38:21.915Z,19.84
2022-08-28T03:40:49.037Z,19.81
2022-08-28T03:43:18.199Z,19.76
2022-08-28T03:45:59.280Z,19.75
2022-08-28T03:48:26.965Z,19.75
2022-08-28T03:50:53.813Z,19.74
2022-08-28T03:53:22.477Z,19.72
2022-08-28T03:55:49.353Z,19.70
2022-08-28T03:58:18.920Z,19.68
2022-08-28T04:00:46.373Z,19.69
2022-08-28T04:03:13.588Z,19.69
2022-08-28T04:05:41.190Z,19.71
2022-08-28T04:08:08.059Z,19.74
2022-08-28T04:10:35.461Z,19.78
2022-08-28T04:13:03.264Z,19.81
2022-08-28T04:15:30.041Z,19.84
2022-08-28T04:17:56.730Z,19.85
2022-08-28T04:20:23.472Z,19.85
2022-08-28T04:22:55.107Z,19.84
2022-08-28T04:25:29.700Z,19.84
2022-08-28T04:27:56.474Z,19.85
2022-08-28T04:30:23.471Z,19.86
2022-08-28T04:32:50.205Z,19.90
2022-08-28T04:35:16.944Z,19.92
2022-08-28T04:37:46.510Z,19.92
2022-08-28T04:40:15.898Z,19.92
2022-08-28T04:42:45.008Z,19.95
2022-08-28T04:45:11.834Z,19.98
2022-08-28T04:47:38.892Z,20.02
2022-08-28T04:50:06.519Z,20.07
2022-08-28T04:52:33.329Z,20.08
2022-08-28T04:55:00.224Z,20.09
2022-08-28T04:57:27.008Z,20.12
2022-08-28T04:59:53.836Z,20.16
2022-08-28T05:02:20.682Z,20.20
2022-08-28T05:04:47.450Z,20.24
2022-08-28T05:07:14.356Z,20.25
2022-08-28T05:09:41.096Z,20.27
2022-08-28T05:12:07.859Z,20.29
2022-08-28T05:14:35.366Z,20.31
2022-08-28T05:17:02.082Z,20.33
2022-08-28T05:19:28.947Z,20.35
2022-08-28T05:21:55.684Z,20.37
2022-08-28T05:24:22.519Z,20.41
2022-08-28T05:26:49.332Z,20.44
2022-08-28T05:29:16.933Z,20.48
2022-08-28T05:31:44.072Z,20.51
2022-08-28T05:34:12.977Z,20.54
2022-08-28T05:36:39.885Z,20.57
2022-08-28T05:39:08.602Z,20.60
2022-08-28T05:41:35.640Z,20.61
2022-08-28T05:44:07.435Z,20.62
2022-08-28T05:46:34.724Z,20.64
2022-08-28T05:49:01.557Z,20.66
2022-08-28T05:51:28.420Z,20.67
2022-08-28T05:53:55.921Z,20.66
2022-08-28T05:56:26.472Z,20.66
2022-08-28T05:58:53.197Z,20.66
2022-08-28T06:01:21.682Z,20.66
2022-08-28T06:03:54.985Z,20.65
2022-08-28T06:06:22.271Z,20.65
2022-08-28T06:08:56.160Z,20.67
2022-08-28T06:11:25.734Z,20.68
2022-08-28T06:13:53.505Z,20.69
2022-08-28T06:16:20.734Z,20.71
2022-08-28T06:18:47.600Z,20.74
2022-08-28T06:21:14.440Z,20.76
2022-08-28T06:23:41.272Z,20.78
2022-08-28T06:26:08.115Z,20.81
2022-08-28T06:28:34.894Z,20.84
2022-08-28T06:31:22.887Z,20.87
2022-08-28T06:33:50.186Z,20.92
2022-08-28T06:36:17.028Z,20.97
2022-08-28T06:38:46.728Z,21.01
2022-08-28T06:41:15.049Z,21.07
2022-08-28T06:43:41.775Z,21.14
2022-08-28T06:46:08.665Z,21.21
2022-08-28T06:48:35.504Z,21.28
2022-08-28T06:51:05.748Z,21.35
2022-08-28T06:53:33.589Z,21.42
2022-08-28T06:56:08.472Z,21.47
2022-08-28T06:58:36.727Z,21.51
2022-08-28T07:01:11.303Z,21.56
2022-08-28T07:03:44.214Z,21.59
2022-08-28T07:06:13.076Z,21.63
2022-08-28T07:08:40.222Z,21.67
2022-08-28T07:11:19.867Z,21.71
2022-08-28T07:13:46.810Z,21.70
2022-08-28T07:16:14.746Z,21.71
2022-08-28T07:18:41.767Z,21.72
2022-08-28T07:21:12.262Z,21.73
2022-08-28T07:23:40.121Z,21.74
2022-08-28T07:26:09.150Z,21.76
2022-08-28T07:28:36.078Z,21.77
2022-08-28T07:31:05.015Z,21.78
2022-08-28T07:33:31.927Z,21.79
2022-08-28T07:35:58.854Z,21.81
2022-08-28T07:38:26.802Z,21.83
2022-08-28T07:40:54.116Z,21.86
2022-08-28T07:43:39.527Z,21.90
2022-08-28T07:46:07.361Z,21.96
2022-08-28T07:48:38.069Z,22.01
2022-08-28T07:51:05.337Z,22.08
2022-08-28T07:53:36.203Z,22.14
2022-08-28T07:56:04.230Z,22.20
2022-08-28T07:58:31.368Z,22.28
2022-08-28T08:00:58.180Z,22.35
2022-08-28T08:03:25.750Z,22.42
2022-08-28T08:05:57.266Z,22.49
2022-08-28T08:08:24.252Z,22.56
2022-08-28T08:11:05.152Z,22.64
2022-08-28T08:13:32.940Z,22.73
2022-08-28T08:16:11.414Z,22.83
2022-08-28T08:18:39.308Z,22.93
2022-08-28T08:21:07.171Z,23.02
2022-08-28T08:23:38.758Z,23.12
2022-08-28T08:26:08.077Z,23.23
2022-08-28T08:28:35.184Z,23.35
2022-08-28T08:31:05.757Z,23.45
2022-08-28T08:33:32.813Z,23.56
2022-08-28T08:35:59.630Z,23.68
2022-08-28T08:38:28.182Z,23.78
2022-08-28T08:40:55.637Z,23.85
2022-08-28T08:43:23.902Z,23.91
2022-08-28T08:45:52.360Z,23.97
2022-08-28T08:48:25.603Z,24.02
2022-08-28T08:50:52.355Z,24.07
2022-08-28T08:53:22.009Z,24.11
2022-08-28T08:55:50.796Z,24.15
2022-08-28T08:58:40.006Z,24.19
2022-08-28T09:01:20.527Z,24.27
2022-08-28T09:03:57.181Z,24.35
2022-08-28T09:06:45.671Z,24.41
2022-08-28T09:09:17.467Z,24.47
2022-08-28T09:11:44.257Z,24.51
2022-08-28T09:14:29.612Z,24.56
2022-08-28T09:16:56.610Z,24.60
2022-08-28T09:19:23.343Z,24.61
2022-08-28T09:21:50.511Z,24.60
2022-08-28T09:24:34.066Z,24.59
2022-08-28T09:27:06.962Z,24.61
2022-08-28T09:29:38.767Z,24.66
2022-08-28T09:32:17.954Z,24.74
2022-08-28T09:35:00.019Z,24.80
2022-08-28T09:37:27.172Z,24.85
2022-08-28T09:40:13.305Z,24.89
2022-08-28T09:42:58.703Z,24.93
2022-08-28T09:45:26.915Z,24.94
2022-08-28T09:47:57.807Z,24.95
2022-08-28T09:50:31.308Z,24.95
2022-08-28T09:53:20.055Z,24.96
2022-08-28T09:55:55.877Z,25.00
2022-08-28T09:58:23.563Z,25.00
2022-08-28T10:00:57.121Z,25.03
2022-08-28T10:03:31.654Z,25.05
2022-08-28T10:06:09.700Z,25.08
2022-08-28T10:08:50.600Z,25.09
2022-08-28T10:11:29.397Z,25.06
2022-08-28T10:14:33.016Z,25.05
2022-08-28T10:16:59.749Z,25.04
2022-08-28T10:20:20.930Z,25.03
2022-08-28T10:22:59.869Z,25.05
2022-08-28T10:25:33.042Z,25.08
2022-08-28T10:28:37.140Z,25.12
2022-08-28T10:31:36.274Z,25.17
2022-08-28T10:34:13.696Z,25.22
2022-08-28T10:36:40.454Z,25.29
2022-08-28T10:39:33.064Z,25.39
2022-08-28T10:42:01.254Z,25.50
2022-08-28T10:44:57.650Z,25.57
2022-08-28T10:47:26.465Z,25.61
2022-08-28T10:49:53.629Z,25.63
2022-08-28T10:52:27.904Z,25.66
2022-08-28T10:55:21.598Z,25.71
2022-08-28T10:57:56.432Z,25.75
2022-08-28T11:00:24.107Z,25.75
2022-08-28T11:06:08.403Z,25.78
2022-08-28T11:08:35.810Z,25.80
2022-08-28T11:11:04.430Z,25.86
2022-08-28T11:13:56.006Z,25.90
2022-08-28T11:16:31.288Z,25.93
2022-08-28T11:19:22.597Z,25.94
2022-08-28T11:21:54.318Z,25.95
2022-08-28T11:24:43.669Z,25.94
2022-08-28T11:27:27.523Z,25.95
2022-08-28T11:30:15.181Z,25.98
2022-08-28T11:32:51.117Z,25.98
2022-08-28T11:35:20.896Z,25.99
2022-08-28T11:37:49.032Z,26.00
2022-08-28T11:40:28.000Z,26.03
2022-08-28T11:43:16.508Z,26.07
2022-08-28T11:45:46.883Z,26.11
2022-08-28T11:48:33.379Z,26.11
2022-08-28T11:51:04.397Z,26.14
2022-08-28T11:53:48.092Z,26.17
2022-08-28T11:56:36.536Z,26.18
2022-08-28T11:59:34.947Z,26.17
2022-08-28T12:02:39.574Z,26.15
2022-08-28T12:05:15.734Z,26.13
2022-08-28T12:07:49.315Z,26.16
2022-08-28T12:10:29.542Z,26.19
2022-08-28T12:12:57.643Z,26.23
2022-08-28T12:15:27.593Z,26.29
2022-08-28T12:18:05.499Z,26.34
2022-08-28T12:20:41.334Z,26.40
2022-08-28T12:23:23.548Z,26.46
2022-08-28T12:25:51.683Z,26.51
2022-08-28T12:28:31.886Z,26.55
2022-08-28T12:31:01.705Z,26.56
2022-08-28T12:33:55.262Z,26.55
2022-08-28T12:36:26.596Z,26.54
2022-08-28T12:38:53.599Z,26.52
2022-08-28T12:41:20.915Z,26.51
2022-08-28T12:43:48.887Z,26.48
2022-08-28T12:46:19.645Z,26.48
2022-08-28T12:48:52.860Z,26.50
2022-08-28T12:51:24.675Z,26.49
2022-08-28T12:53:53.660Z,26.47
2022-08-28T12:56:21.876Z,26.44
2022-08-28T12:58:49.120Z,26.43
2022-08-28T13:01:30.043Z,26.42
2022-08-28T13:04:02.400Z,26.40
2022-08-28T13:06:36.667Z,26.40
2022-08-28T13:09:06.024Z,26.44
2022-08-28T13:11:39.166Z,26.48
2022-08-28T13:14:06.110Z,26.49
2022-08-28T13:16:44.674Z,26.51
2022-08-28T13:19:27.034Z,26.52
2022-08-28T13:22:01.954Z,26.53
2022-08-28T13:24:36.680Z,26.52
2022-08-28T13:27:14.110Z,26.52
2022-08-28T13:29:57.325Z,26.52
2022-08-28T13:32:27.138Z,26.52
2022-08-28T13:35:09.519Z,26.52
2022-08-28T13:37:50.481Z,26.54
2022-08-28T13:40:53.521Z,26.56
2022-08-28T13:43:07.261Z,26.59
2022-08-28T13:45:42.775Z,26.60
2022-08-28T13:48:24.743Z,26.60
2022-08-28T13:50:53.700Z,26.61
2022-08-28T13:53:20.899Z,26.65
2022-08-28T13:55:48.753Z,26.68
2022-08-28T13:58:16.051Z,26.70
2022-08-28T14:00:47.914Z,26.69
2022-08-28T14:03:33.260Z,26.65
2022-08-28T14:06:00.041Z,26.61
2022-08-28T14:08:26.917Z,26.56
2022-08-28T14:10:53.624Z,26.53
2022-08-28T14:13:23.090Z,26.48
2022-08-28T14:15:49.857Z,26.42
2022-08-28T14:18:18.141Z,26.36
2022-08-28T14:20:44.864Z,26.31
2022-08-28T14:23:12.346Z,26.25
2022-08-28T14:25:43.892Z,26.19
2022-08-28T14:28:11.504Z,26.12
2022-08-28T14:30:46.072Z,26.07
2022-08-28T14:33:15.071Z,25.99
2022-08-28T14:35:42.054Z,25.93
2022-08-28T14:38:09.389Z,25.88
2022-08-28T14:40:38.376Z,25.84
2022-08-28T14:43:06.142Z,25.81
2022-08-28T14:45:33.037Z,25.77
2022-08-28T14:47:59.966Z,25.71
2022-08-28T14:50:26.729Z,25.66
2022-08-28T14:52:54.756Z,25.63
2022-08-28T14:55:21.765Z,25.59
2022-08-28T14:57:48.853Z,25.55
2022-08-28T15:00:18.255Z,25.53
2022-08-28T15:02:45.017Z,25.51
2022-08-28T15:05:11.968Z,25.50
2022-08-28T15:07:38.756Z,25.47
2022-08-28T15:10:06.023Z,25.44
2022-08-28T15:12:32.720Z,25.42
2022-08-28T15:14:59.471Z,25.41
2022-08-28T15:17:34.501Z,25.38
2022-08-28T15:20:02.152Z,25.35
2022-08-28T15:22:28.915Z,25.30
2022-08-28T15:24:55.823Z,25.27
2022-08-28T15:27:22.713Z,25.23
2022-08-28T15:29:49.826Z,25.21
2022-08-28T15:32:16.578Z,25.17
2022-08-28T15:34:44.321Z,25.14
2022-08-28T15:37:11.094Z,25.10
2022-08-28T15:39:59.062Z,25.07
2022-08-28T15:42:25.897Z,25.03
2022-08-28T15:44:55.983Z,24.98
2022-08-28T15:47:24.952Z,24.92
2022-08-28T15:49:55.937Z,24.88
2022-08-28T15:52:24.800Z,24.84
2022-08-28T15:54:51.803Z,24.80
2022-08-28T15:57:18.568Z,24.78
2022-08-28T15:59:49.394Z,24.74
2022-08-28T16:02:22.335Z,24.70
2022-08-28T16:04:49.440Z,24.65
2022-08-28T16:07:16.737Z,24.61
2022-08-28T16:09:43.487Z,24.57
2022-08-28T16:12:10.251Z,24.54
2022-08-28T16:14:37.038Z,24.50
2022-08-28T16:17:05.974Z,24.44
2022-08-28T16:19:39.755Z,24.38
2022-08-28T16:22:06.722Z,24.32
2022-08-28T16:24:33.699Z,24.25
2022-08-28T16:27:00.465Z,24.19
2022-08-28T16:29:27.224Z,24.13
2022-08-28T16:31:54.074Z,24.07
2022-08-28T16:34:21.247Z,24.00
2022-08-28T16:36:48.480Z,23.95
2022-08-28T16:39:15.290Z,23.91
2022-08-28T16:41:43.139Z,23.87
2022-08-28T16:44:09.881Z,23.84
2022-08-28T16:46:36.665Z,23.77
2022-08-28T16:49:03.448Z,23.71
2022-08-28T16:51:30.244Z,23.62
2022-08-28T16:53:57.039Z,23.53
2022-08-28T16:56:25.009Z,23.43
2022-08-28T16:58:53.063Z,23.32
2022-08-28T17:01:21.558Z,23.22
2022-08-28T17:03:52.155Z,23.13
2022-08-28T17:06:24.535Z,23.07
2022-08-28T17:08:56.446Z,22.99
2022-08-28T17:11:27.143Z,22.91
2022-08-28T17:13:54.266Z,22.84
2022-08-28T17:16:21.862Z,22.80
2022-08-28T17:18:52.307Z,22.75
2022-08-28T17:21:38.920Z,22.67
2022-08-28T17:24:06.838Z,22.60
2022-08-28T17:26:33.753Z,22.54
2022-08-28T17:29:00.508Z,22.48
2022-08-28T17:31:27.340Z,22.42
2022-08-28T17:33:54.378Z,22.35
2022-08-28T17:36:32.627Z,22.29
2022-08-28T17:39:01.888Z,22.23
2022-08-28T17:41:28.717Z,22.17
2022-08-28T17:43:55.532Z,22.11
2022-08-28T17:46:22.649Z,22.04
2022-08-28T17:48:51.524Z,21.97
2022-08-28T17:51:41.928Z,21.92
2022-08-28T17:54:11.183Z,21.84
2022-08-28T17:56:38.155Z,21.80
2022-08-28T17:59:05.099Z,21.76
2022-08-28T18:01:31.859Z,21.71
2022-08-28T18:03:58.711Z,21.63
2022-08-28T18:06:25.433Z,21.58
2022-08-28T18:08:52.243Z,21.50
2022-08-28T18:11:19.227Z,21.46
2022-08-28T18:13:46.495Z,21.43
2022-08-28T18:16:13.514Z,21.40
2022-08-28T18:18:40.491Z,21.34
2022-08-28T18:21:09.710Z,21.29
2022-08-28T18:23:36.655Z,21.25
2022-08-28T18:26:03.407Z,21.24
2022-08-28T18:28:30.322Z,21.21
2022-08-28T18:30:57.238Z,21.18
2022-08-28T18:33:24.242Z,21.15
2022-08-28T18:35:51.526Z,21.14
2022-08-28T18:38:18.623Z,21.12
2022-08-28T18:40:46.086Z,21.09
2022-08-28T18:43:13.335Z,21.03
2022-08-28T18:45:40.234Z,20.98
2022-08-28T18:48:09.983Z,20.93
2022-08-28T18:50:36.952Z,20.82
2022-08-28T18:53:03.891Z,20.70
2022-08-28T18:55:32.101Z,20.60
2022-08-28T18:57:59.218Z,20.53
2022-08-28T19:00:27.190Z,20.45
2022-08-28T19:02:54.048Z,20.37
2022-08-28T19:05:21.500Z,20.29
2022-08-28T19:08:15.595Z,20.22
2022-08-28T19:10:54.213Z,20.14
2022-08-28T19:13:25.176Z,20.05
2022-08-28T19:15:54.399Z,20.01
2022-08-28T19:18:32.194Z,19.97
2022-08-28T19:21:22.645Z,19.90
2022-08-28T19:23:56.131Z,19.85
2022-08-28T19:26:24.877Z,19.81
2022-08-28T19:28:52.087Z,19.72
2022-08-28T19:31:19.059Z,19.63
2022-08-28T19:33:46.583Z,19.56
2022-08-28T19:36:14.011Z,19.50
2022-08-28T19:38:41.187Z,19.44
2022-08-28T19:41:08.829Z,19.37
2022-08-28T19:43:44.352Z,19.31
2022-08-28T19:46:18.446Z,19.25
2022-08-28T19:48:48.301Z,19.21
2022-08-28T19:51:17.338Z,19.15
2022-08-28T19:53:44.647Z,19.12
2022-08-28T19:56:11.451Z,19.09
2022-08-28T19:58:38.289Z,19.07
2022-08-28T20:01:05.295Z,19.06
2022-08-28T20:03:32.777Z,19.08
2022-08-28T20:06:03.870Z,19.10
2022-08-28T20:08:30.602Z,19.14
2022-08-28T20:10:57.482Z,19.16
2022-08-28T20:13:24.401Z,19.20
2022-08-28T20:15:53.101Z,19.24
2022-08-28T20:18:20.714Z,19.27
2022-08-28T20:20:48.256Z,19.27
2022-08-28T20:23:15.635Z,19.28
2022-08-28T20:25:49.367Z,19.27
2022-08-28T20:28:17.034Z,19.24
2022-08-28T20:30:47.205Z,19.21
2022-08-28T20:33:25.706Z,19.17
2022-08-28T20:36:03.264Z,19.15
2022-08-28T20:38:29.992Z,19.12
2022-08-28T20:41:16.383Z,19.07
2022-08-28T20:43:43.831Z,18.98
2022-08-28T20:46:11.402Z,18.91
2022-08-28T20:48:38.651Z,18.86
2022-08-28T20:51:05.680Z,18.80
2022-08-28T20:53:37.853Z,18.75
2022-08-28T20:56:07.670Z,18.70
2022-08-28T20:58:34.491Z,18.64
2022-08-28T21:01:01.365Z,18.59
2022-08-28T21:03:28.423Z,18.54
2022-08-28T21:05:55.545Z,18.47
2022-08-28T21:08:22.323Z,18.39
2022-08-28T21:10:49.085Z,18.34
2022-08-28T21:13:15.916Z,18.30
2022-08-28T21:15:42.710Z,18.27
2022-08-28T21:18:09.875Z,18.23
2022-08-28T21:20:38.458Z,18.19
2022-08-28T21:23:06.147Z,18.15
2022-08-28T21:25:32.930Z,18.14
2022-08-28T21:27:59.676Z,18.15
2022-08-28T21:30:31.097Z,18.17
2022-08-28T21:32:57.903Z,18.15
2022-08-28T21:35:24.758Z,18.11
2022-08-28T21:37:51.581Z,18.09
2022-08-28T21:40:19.446Z,18.08
2022-08-28T21:42:46.350Z,18.07
2022-08-28T21:45:13.119Z,18.06
2022-08-28T21:47:41.196Z,18.03
2022-08-28T21:50:08.258Z,18.01
2022-08-28T21:52:35.094Z,17.99
2022-08-28T21:55:05.776Z,18.00
2022-08-28T21:57:32.539Z,18.00
2022-08-28T21:59:59.356Z,18.03
2022-08-28T22:02:26.782Z,18.05
2022-08-28T22:04:53.797Z,18.08
2022-08-28T22:07:20.614Z,18.11
2022-08-28T22:09:47.387Z,18.12
2022-08-28T22:12:14.224Z,18.12
2022-08-28T22:14:41.007Z,18.12
2022-08-28T22:17:11.343Z,18.13
2022-08-28T22:19:39.413Z,18.14
2022-08-28T22:22:24.691Z,18.17
2022-08-28T22:24:51.466Z,18.19
2022-08-28T22:27:18.191Z,18.22
2022-08-28T22:29:44.925Z,18.25
2022-08-28T22:32:12.028Z,18.25
2022-08-28T22:34:41.544Z,18.24
2022-08-28T22:37:09.098Z,18.26
2022-08-28T22:39:35.793Z,18.30
2022-08-28T22:42:02.496Z,18.32
2022-08-28T22:44:29.596Z,18.32
2022-08-28T22:46:57.004Z,18.30
2022-08-28T22:49:23.773Z,18.30
2022-08-28T22:51:50.517Z,18.30
2022-08-28T22:54:17.503Z,18.30
2022-08-28T22:56:44.276Z,18.29
2022-08-28T22:59:11.003Z,18.26
2022-08-28T23:01:37.980Z,18.25
2022-08-28T23:04:04.854Z,18.25
2022-08-28T23:06:31.867Z,18.25
2022-08-28T23:08:58.600Z,18.24
2022-08-28T23:11:25.478Z,18.25
2022-08-28T23:13:52.411Z,18.25
2022-08-28T23:16:23.983Z,18.25
2022-08-28T23:19:07.374Z,18.24
2022-08-28T23:23:14.913Z,18.30
2022-08-28T23:25:41.654Z,18.30
2022-08-28T23:28:08.397Z,18.30
2022-08-28T23:30:35.145Z,18.30
2022-08-28T23:33:04.137Z,18.30
2022-08-28T23:35:35.952Z,18.31
2022-08-28T23:38:04.068Z,18.31
2022-08-28T23:40:33.248Z,18.33
2022-08-28T23:43:02.845Z,18.36
2022-08-28T23:45:29.902Z,18.38
2022-08-28T23:47:56.629Z,18.43
2022-08-28T23:50:23.427Z,18.47
2022-08-28T23:52:50.425Z,18.50
2022-08-28T23:55:18.256Z,18.53
2022-08-28T23:57:45.911Z,18.57
